Time;durP1;ratioP1;P1;durP2;ratioP2;P2;SDS_P1;SDS_P2;PMS_P1;PMS_P2;Temp;Humidity;BMP_temperature;BMP_pressure;BME280_temperature;BME280_humidity;BME280_pressure;Samples;Min_cycle;Max_cycle;Signal;HPM_P1;HPM_P2
2021/01/22 00:01:41;;;;;;;6.20;3.03;;;;;;;3.96;76.78;97816.41;5006907;28;20053;-95
2021/01/22 00:04:06;;;;;;;6.10;2.60;;;;;;;3.85;76.65;97836.41;5015173;28;20010;-94
2021/01/22 00:06:32;;;;;;;9.10;2.28;;;;;;;3.87;77.00;97796.41;5017725;28;20015;-95
2021/01/22 00:08:57;;;;;;;6.70;3.00;;;;;;;4.06;77.22;97805.28;5016999;28;20018;-95
2021/01/22 00:11:23;;;;;;;9.07;3.17;;;;;;;4.10;78.35;97837.81;5017589;28;20015;-95
2021/01/22 00:13:48;;;;;;;12.32;3.92;;;;;;;3.87;78.18;97805.97;5008235;28;20033;-95
2021/01/22 00:16:14;;;;;;;6.53;3.03;;;;;;;3.97;77.66;97838.03;4992806;28;20081;-95
2021/01/22 00:18:39;;;;;;;12.20;4.65;;;;;;;3.78;78.09;97823.13;4993212;28;20034;-95
2021/01/22 00:21:04;;;;;;;7.72;3.30;;;;;;;3.76;77.58;97807.66;4993856;28;20026;-95
2021/01/22 00:23:30;;;;;;;10.70;3.42;;;;;;;3.43;79.21;97818.19;4993345;28;20022;-94
2021/01/22 00:25:56;;;;;;;5.65;3.17;;;;;;;3.50;79.13;97812.38;4992764;28;20030;-94
2021/01/22 00:28:22;;;;;;;6.65;4.00;;;;;;;3.71;77.83;97808.97;4993473;28;20379;-95
2021/01/22 00:30:47;;;;;;;12.45;4.90;;;;;;;3.54;79.35;97810.38;4993070;28;20018;-96
2021/01/22 00:33:12;;;;;;;9.50;5.55;;;;;;;3.77;78.88;97840.47;4993287;28;20135;-94
2021/01/22 00:35:38;;;;;;;9.75;5.43;;;;;;;3.87;78.97;97837.94;4993529;28;20108;-95
2021/01/22 00:38:03;;;;;;;11.55;5.40;;;;;;;3.83;78.61;97830.50;4993438;28;20034;-94
2021/01/22 00:40:29;;;;;;;9.30;5.20;;;;;;;3.41;78.28;97800.13;4993092;28;20018;-94
2021/01/22 00:42:54;;;;;;;16.15;6.15;;;;;;;3.53;78.97;97827.69;4993238;28;20026;-95
2021/01/22 00:45:20;;;;;;;11.25;5.55;;;;;;;3.58;79.20;97822.94;4993063;28;20030;-94
2021/01/22 00:47:45;;;;;;;13.70;6.25;;;;;;;3.72;79.61;97840.00;4992997;28;20022;-94
2021/01/22 00:50:11;;;;;;;11.90;6.05;;;;;;;3.65;79.13;97823.28;4993175;28;20389;-94
2021/01/22 00:52:37;;;;;;;14.98;5.82;;;;;;;3.80;78.61;97849.78;4992928;28;20457;-93
2021/01/22 00:55:02;;;;;;;12.77;6.10;;;;;;;3.56;79.02;97821.44;4992970;28;20050;-95
2021/01/22 00:57:28;;;;;;;11.98;5.50;;;;;;;3.72;78.81;97850.38;4992596;28;20101;-94
2021/01/22 00:59:53;;;;;;;9.77;5.38;;;;;;;3.78;79.24;97859.44;4992588;28;20038;-94
2021/01/22 01:02:18;;;;;;;17.90;6.15;;;;;;;3.68;78.43;97856.78;4992621;28;20034;-93
2021/01/22 01:04:44;;;;;;;12.63;6.70;;;;;;;3.56;78.62;97861.19;4992772;28;20038;-95
2021/01/22 01:07:09;;;;;;;11.10;6.22;;;;;;;3.64;78.92;97867.53;4993667;28;20033;-94
2021/01/22 01:09:35;;;;;;;13.95;6.35;;;;;;;3.66;78.66;97863.03;4992968;28;20045;-93
2021/01/22 01:12:00;;;;;;;7.70;5.30;;;;;;;3.59;78.29;97870.47;4993012;28;20027;-95
2021/01/22 01:14:25;;;;;;;13.52;5.68;;;;;;;3.43;77.83;97855.31;4992389;28;20109;-93
2021/01/22 01:16:51;;;;;;;13.48;6.28;;;;;;;3.44;79.65;97856.97;4992398;28;20025;-94
2021/01/22 01:19:16;;;;;;;10.18;5.68;;;;;;;3.47;79.21;97861.09;4992869;28;20025;-94
2021/01/22 01:21:42;;;;;;;14.73;6.05;;;;;;;3.47;79.29;97861.91;4995581;28;20485;-94
2021/01/22 01:24:08;;;;;;;14.32;5.47;;;;;;;3.48;79.66;97866.16;4996125;28;20030;-93
2021/01/22 01:26:33;;;;;;;9.02;4.43;;;;;;;3.45;79.22;97858.59;4996829;28;20034;-95
2021/01/22 01:28:58;;;;;;;12.98;5.85;;;;;;;3.56;79.89;97868.13;5001723;28;20479;-94
2021/01/22 01:31:24;;;;;;;11.52;5.63;;;;;;;3.60;80.15;97873.91;5002894;28;20015;-93
2021/01/22 01:33:49;;;;;;;11.57;5.65;;;;;;;3.48;79.99;97860.97;5003471;28;20041;-94
2021/01/22 01:36:14;;;;;;;12.55;6.38;;;;;;;3.47;79.42;97853.31;5004763;28;20034;-94
2021/01/22 01:38:40;;;;;;;11.43;5.45;;;;;;;3.47;79.08;97856.72;5008557;28;20038;-95
2021/01/22 01:41:05;;;;;;;9.82;5.07;;;;;;;3.56;79.77;97871.56;5007938;28;20046;-94
2021/01/22 01:43:31;;;;;;;10.35;4.70;;;;;;;3.62;79.43;97885.81;5018764;28;20038;-94
2021/01/22 01:45:56;;;;;;;12.50;5.68;;;;;;;3.42;79.51;97860.63;5019535;28;20002;-93
2021/01/22 01:48:22;;;;;;;10.15;6.03;;;;;;;3.61;80.18;97891.13;5019534;28;20050;-93
2021/01/22 01:50:47;;;;;;;9.35;5.43;;;;;;;3.53;79.95;97879.56;5019519;28;20106;-93
2021/01/22 01:53:13;;;;;;;11.38;5.63;;;;;;;3.71;79.25;97884.25;5020320;28;20022;-94
2021/01/22 01:55:39;;;;;;;12.50;4.90;;;;;;;3.42;80.66;97891.78;5020013;28;20057;-94
2021/01/22 01:58:05;;;;;;;14.00;5.70;;;;;;;3.32;81.18;97899.44;5018633;28;20070;-95
2021/01/22 02:00:34;;;;;;;16.50;6.63;;;;;;;3.13;80.95;97884.47;5020114;28;20030;-94
2021/01/22 02:03:00;;;;;;;13.35;5.43;;;;;;;3.18;81.40;97901.34;5020538;28;20022;-94
2021/01/22 02:05:26;;;;;;;8.63;4.68;;;;;;;3.14;81.23;97893.91;5019876;28;20006;-93
2021/01/22 02:07:51;;;;;;;14.18;6.00;;;;;;;3.28;80.73;97880.69;5019866;28;20048;-94
2021/01/22 02:10:17;;;;;;;10.38;5.30;;;;;;;3.37;80.30;97886.91;5019703;28;20014;-94
2021/01/22 02:12:44;;;;;;;15.43;6.75;;;;;;;3.34;80.15;97913.13;5019881;28;20018;-94
2021/01/22 02:15:12;;;;;;;10.45;5.40;;;;;;;3.07;80.36;97890.97;5016198;28;20026;-94
2021/01/22 02:17:40;;;;;;;9.07;5.60;;;;;;;2.97;80.41;97896.03;5019691;28;20265;-93
2021/01/22 02:20:38;;;;;;;20.92;6.30;;;;;;;3.00;80.86;97910.50;5019633;28;20019;-94
2021/01/22 02:23:03;;;;;;;16.85;7.00;;;;;;;3.02;82.43;97921.63;5015075;28;20036;-95
2021/01/22 02:25:40;;;;;;;17.42;7.15;;;;;;;3.07;81.46;97929.84;5019368;28;20014;-94
2021/01/22 02:28:11;;;;;;;17.10;6.78;;;;;;;2.96;81.72;97909.94;5015022;28;20040;-93
2021/01/22 02:30:36;;;;;;;11.90;6.78;;;;;;;3.00;81.31;97902.75;4995418;28;20050;-94
2021/01/22 02:33:05;;;;;;;15.80;6.70;;;;;;;3.06;81.41;97920.44;4995336;28;20061;-93
2021/01/22 02:35:33;;;;;;;17.73;6.78;;;;;;;2.94;81.12;97909.25;4995165;28;20420;-94
2021/01/22 02:38:01;;;;;;;14.57;7.15;;;;;;;3.11;81.71;97923.50;4994935;28;20052;-94
2021/01/22 02:40:28;;;;;;;14.35;7.35;;;;;;;3.13;81.75;97908.63;4995129;28;20109;-94
2021/01/22 02:42:55;;;;;;;13.48;7.30;;;;;;;3.01;81.55;97901.81;4993896;28;20444;-94
2021/01/22 02:45:21;;;;;;;17.13;7.15;;;;;;;3.22;81.14;97921.81;4994850;28;20026;-94
2021/01/22 02:47:50;;;;;;;16.52;7.63;;;;;;;3.24;81.39;97931.16;4994446;28;20030;-94
2021/01/22 02:50:29;;;;;;;12.18;5.97;;;;;;;3.04;79.47;97935.28;4994606;28;20453;-94
2021/01/22 02:52:58;;;;;;;16.45;5.75;;;;;;;2.93;80.05;97925.72;4994458;28;20022;-93
2021/01/22 02:55:24;;;;;;;14.73;6.55;;;;;;;2.69;81.52;97928.41;4994717;28;20031;-94
2021/01/22 02:57:56;;;;;;;13.77;6.82;;;;;;;2.43;81.84;97895.84;4994438;28;20049;-95
2021/01/22 03:00:28;;;;;;;12.45;6.40;;;;;;;2.40;81.92;97916.81;4994262;28;20018;-93
2021/01/22 03:03:30;;;;;;;21.73;7.07;;;;;;;2.40;81.50;97937.53;4996863;28;20053;-93
2021/01/22 03:05:58;;;;;;;15.00;6.53;;;;;;;2.34;81.98;97921.50;4994855;28;20401;-95
2021/01/22 03:08:26;;;;;;;11.80;6.95;;;;;;;2.54;81.36;97945.09;4995093;28;20348;-93
2021/01/22 03:10:53;;;;;;;14.73;6.38;;;;;;;2.47;81.08;97924.03;4993757;28;20026;-94
2021/01/22 03:13:19;;;;;;;8.73;6.28;;;;;;;2.34;81.35;97911.13;4994262;28;20034;-94
2021/01/22 03:15:45;;;;;;;11.27;5.55;;;;;;;2.58;81.76;97947.34;5000444;28;20026;-93
2021/01/22 03:18:16;;;;;;;13.02;6.05;;;;;;;2.45;81.74;97931.09;5017390;28;20034;-93
2021/01/22 03:20:43;;;;;;;12.23;6.78;;;;;;;2.64;81.08;97934.88;5015387;28;20023;-92
2021/01/22 03:23:08;;;;;;;13.82;6.90;;;;;;;2.66;80.91;97931.22;4994543;28;20084;-94
2021/01/22 03:25:34;;;;;;;12.95;6.55;;;;;;;2.76;80.76;97945.16;4994130;28;20485;-94
2021/01/22 03:27:59;;;;;;;11.70;6.90;;;;;;;2.73;80.73;97950.56;4994150;28;20022;-93
2021/01/22 03:30:25;;;;;;;12.95;7.05;;;;;;;2.67;79.92;97960.56;4994824;28;20287;-94
2021/01/22 03:32:50;;;;;;;12.55;7.47;;;;;;;2.60;80.08;97943.81;4998432;28;20030;-93
2021/01/22 03:35:16;;;;;;;12.48;6.53;;;;;;;2.67;79.56;97963.16;4996967;28;20022;-93
2021/01/22 03:37:42;;;;;;;12.15;7.50;;;;;;;2.49;79.38;97953.22;5009057;28;20006;-93
2021/01/22 03:40:08;;;;;;;23.52;7.68;;;;;;;2.45;79.52;97966.50;5017101;28;20483;-94
2021/01/22 03:42:33;;;;;;;12.93;7.38;;;;;;;2.53;80.97;97972.78;4999781;28;20034;-93
2021/01/22 03:44:58;;;;;;;17.65;7.40;;;;;;;2.61;81.23;97961.00;4993648;28;20108;-92
2021/01/22 03:47:24;;;;;;;13.27;6.63;;;;;;;2.55;80.44;97957.13;4993999;28;20058;-94
2021/01/22 03:49:49;;;;;;;16.65;8.32;;;;;;;2.66;80.21;97974.44;5000472;28;20034;-94
2021/01/22 03:52:14;;;;;;;16.88;7.65;;;;;;;2.69;80.32;97969.88;5002458;28;20022;-92
2021/01/22 03:54:40;;;;;;;14.02;7.53;;;;;;;2.61;80.06;97961.84;5001604;28;20499;-94
2021/01/22 03:57:05;;;;;;;18.23;8.05;;;;;;;2.61;80.58;97973.94;5001942;28;20025;-94
2021/01/22 03:59:31;;;;;;;16.70;6.88;;;;;;;2.88;80.37;97977.06;5014661;28;20013;-93
2021/01/22 04:01:56;;;;;;;18.92;7.80;;;;;;;2.93;79.71;97987.94;5017575;28;20022;-94
2021/01/22 04:04:21;;;;;;;18.10;6.90;;;;;;;2.72;77.95;97972.22;5016987;28;20026;-94
2021/01/22 04:06:47;;;;;;;14.30;7.03;;;;;;;2.82;79.60;97990.50;5014224;28;20054;-94
2021/01/22 04:09:12;;;;;;;11.95;6.75;;;;;;;2.63;79.02;97990.25;4994113;28;20030;-94
2021/01/22 04:11:37;;;;;;;10.48;6.50;;;;;;;2.35;78.88;97990.50;4993145;28;20049;-93
2021/01/22 04:14:03;;;;;;;17.35;7.30;;;;;;;2.20;79.02;97970.06;4992850;28;20037;-94
2021/01/22 04:16:28;;;;;;;14.07;8.18;;;;;;;2.15;80.02;97993.69;4993133;28;20128;-94
2021/01/22 04:18:53;;;;;;;12.57;7.80;;;;;;;2.36;80.11;98004.25;4992956;28;20088;-95
2021/01/22 04:21:19;;;;;;;11.73;7.10;;;;;;;2.38;80.21;98000.63;4993301;28;20543;-93
2021/01/22 04:23:44;;;;;;;11.30;6.57;;;;;;;2.43;79.68;98004.63;4993249;28;20030;-95
2021/01/22 04:26:10;;;;;;;12.05;6.90;;;;;;;2.38;79.78;97992.84;4994181;28;20019;-95
2021/01/22 04:28:35;;;;;;;12.70;6.90;;;;;;;2.42;79.56;98003.00;4993300;28;20031;-94
2021/01/22 04:31:00;;;;;;;16.50;7.22;;;;;;;2.46;79.79;98004.41;4993217;28;20077;-94
2021/01/22 04:33:26;;;;;;;13.88;7.07;;;;;;;2.41;79.76;98007.34;4992990;28;20564;-94
2021/01/22 04:35:51;;;;;;;16.20;6.50;;;;;;;2.26;79.26;97982.56;4993966;28;20018;-95
2021/01/22 04:38:18;;;;;;;12.43;7.47;;;;;;;2.14;78.29;97986.88;4993797;28;20029;-95
2021/01/22 04:40:43;;;;;;;13.13;6.63;;;;;;;2.33;79.75;98009.66;4994580;28;20022;-94
2021/01/22 04:43:09;;;;;;;15.18;7.05;;;;;;;2.02;78.92;98003.28;4995826;28;20033;-94
2021/01/22 04:45:35;;;;;;;13.73;6.85;;;;;;;2.12;80.17;98009.44;4997594;28;20026;-94
2021/01/22 04:48:02;;;;;;;17.20;7.50;;;;;;;2.08;80.04;98020.97;4998025;28;20030;-95
2021/01/22 04:50:29;;;;;;;13.02;8.02;;;;;;;2.16;79.42;98005.72;5005159;28;20025;-94
2021/01/22 04:52:57;;;;;;;12.32;7.57;;;;;;;2.06;79.54;97986.59;5016713;28;20078;-94
2021/01/22 04:55:26;;;;;;;15.90;7.70;;;;;;;2.16;79.29;98018.66;5017945;28;20030;-93
2021/01/22 04:57:54;;;;;;;17.25;7.53;;;;;;;2.34;79.44;98022.50;4998457;28;20029;-93
2021/01/22 05:00:23;;;;;;;11.27;6.38;;;;;;;2.12;78.88;97981.78;4998340;28;20042;-94
2021/01/22 05:02:53;;;;;;;16.70;8.05;;;;;;;2.30;79.58;98010.72;4993443;28;20030;-95
2021/01/22 05:05:20;;;;;;;16.30;8.60;;;;;;;2.20;78.96;98020.09;4976821;28;20054;-94
2021/01/22 05:07:45;;;;;;;15.73;9.00;;;;;;;2.38;79.16;98034.28;4994352;28;20031;-94
2021/01/22 05:10:11;;;;;;;13.65;9.52;;;;;;;2.44;79.92;98035.59;4993273;28;20029;-94
2021/01/22 05:12:37;;;;;;;19.65;8.85;;;;;;;2.16;78.69;98003.13;4993768;28;20027;-93
2021/01/22 05:15:24;;;;;;;14.95;7.97;;;;;;;2.23;79.38;98013.84;4995141;28;20536;-93
2021/01/22 05:18:04;;;;;;;21.73;9.48;;;;;;;2.18;79.60;98038.31;4996331;28;20504;-96
2021/01/22 05:20:38;;;;;;;19.35;8.52;;;;;;;2.21;79.24;98024.31;4996447;28;20027;-94
2021/01/22 05:23:05;;;;;;;19.27;8.57;;;;;;;2.25;77.91;98046.47;4996275;28;20030;-94
2021/01/22 05:25:32;;;;;;;19.65;8.40;;;;;;;1.85;78.86;98033.75;4996241;28;20018;-95
2021/01/22 05:27:58;;;;;;;21.15;9.55;;;;;;;2.13;79.45;98048.19;4997253;28;20490;-96
2021/01/22 05:30:26;;;;;;;18.50;9.82;;;;;;;1.92;79.94;98010.88;4997129;28;20030;-94
2021/01/22 05:32:51;;;;;;;18.33;9.63;;;;;;;2.16;80.05;98047.94;4997419;28;20116;-95
2021/01/22 05:35:28;;;;;;;21.58;10.38;;;;;;;1.94;80.32;98024.53;5004606;28;20060;-96
2021/01/22 05:37:53;;;;;;;15.95;8.85;;;;;;;2.22;79.80;98033.75;5009935;28;20026;-96
2021/01/22 05:40:19;;;;;;;17.45;9.40;;;;;;;2.33;79.66;98046.75;5010026;28;20022;-95
2021/01/22 05:42:49;;;;;;;20.50;9.77;;;;;;;2.20;79.69;98027.03;5010950;28;20026;-96
2021/01/22 05:45:16;;;;;;;23.23;11.02;;;;;;;2.42;79.45;98085.88;5018882;28;20015;-95
2021/01/22 05:47:42;;;;;;;19.73;10.13;;;;;;;2.32;79.51;98049.44;5019124;28;20057;-95
2021/01/22 05:50:09;;;;;;;22.75;11.32;;;;;;;2.38;80.09;98080.91;5013647;28;20026;-94
2021/01/22 05:52:35;;;;;;;20.20;10.00;;;;;;;2.24;80.35;98068.13;4995615;28;20088;-94
2021/01/22 05:55:18;;;;;;;19.20;11.15;;;;;;;2.07;80.22;98040.81;4995393;28;20499;-94
2021/01/22 05:57:43;;;;;;;19.95;9.27;;;;;;;2.14;79.16;98043.81;4995848;28;20030;-94
2021/01/22 06:00:11;;;;;;;17.45;8.50;;;;;;;2.34;79.59;98069.09;4996656;28;20381;-95
2021/01/22 06:02:37;;;;;;;17.90;8.13;;;;;;;2.43;78.94;98098.72;5001520;28;20026;-95
2021/01/22 06:05:16;;;;;;;27.67;10.10;;;;;;;1.93;78.80;98070.25;4999030;28;20495;-94
2021/01/22 06:07:44;;;;;;;19.98;9.00;;;;;;;2.25;80.10;98110.38;4996178;28;20030;-96
2021/01/22 06:10:22;;;;;;;15.95;8.90;;;;;;;2.16;79.19;98081.59;4995980;28;20121;-94
2021/01/22 06:12:53;;;;;;;17.30;9.00;;;;;;;2.19;78.60;98106.44;4996175;28;20026;-95
2021/01/22 06:15:21;;;;;;;17.52;8.73;;;;;;;2.26;79.06;98112.84;4996188;28;20029;-95
2021/01/22 06:17:53;;;;;;;22.27;8.32;;;;;;;2.08;78.53;98083.09;4995660;28;20105;-95
2021/01/22 06:20:23;;;;;;;22.42;8.98;;;;;;;2.28;79.82;98116.16;4995436;28;20026;-95
2021/01/22 06:23:06;;;;;;;23.27;8.55;;;;;;;2.29;79.09;98112.66;4995018;28;20116;-95
2021/01/22 06:25:35;;;;;;;13.07;7.60;;;;;;;2.00;78.66;98116.44;5002140;28;20049;-94
2021/01/22 06:28:02;;;;;;;21.77;8.27;;;;;;;2.15;79.35;98123.97;5003906;28;20030;-94
2021/01/22 06:30:30;;;;;;;20.80;7.18;;;;;;;2.17;79.22;98129.03;4996301;28;20030;-94
2021/01/22 06:32:59;;;;;;;18.02;8.02;;;;;;;2.07;79.29;98133.19;4995630;28;20023;-95
2021/01/22 06:35:27;;;;;;;17.98;8.27;;;;;;;2.20;80.47;98138.34;4995637;28;20022;-95
2021/01/22 06:37:53;;;;;;;15.25;7.63;;;;;;;2.21;80.28;98108.94;4995945;28;20037;-96
2021/01/22 06:40:19;;;;;;;27.20;8.70;;;;;;;2.47;80.91;98140.75;4995633;28;20022;-95
2021/01/22 06:42:46;;;;;;;17.90;7.93;;;;;;;2.41;79.40;98129.09;4979004;28;20046;-95
2021/01/22 06:45:12;;;;;;;20.90;9.27;;;;;;;2.33;78.83;98114.09;4995074;28;20492;-94
2021/01/22 06:47:37;;;;;;;22.48;8.70;;;;;;;2.29;78.54;98130.78;4995125;28;20019;-94
2021/01/22 06:50:03;;;;;;;18.00;8.63;;;;;;;2.23;79.16;98145.91;4994650;28;20475;-95
2021/01/22 06:52:29;;;;;;;20.13;9.65;;;;;;;2.23;79.36;98123.41;4998465;28;20045;-94
2021/01/22 06:54:57;;;;;;;16.27;8.25;;;;;;;2.36;79.44;98144.09;4996830;28;20027;-95
2021/01/22 06:57:25;;;;;;;22.17;9.00;;;;;;;2.35;79.26;98143.28;5012504;28;20018;-95
2021/01/22 06:59:51;;;;;;;21.55;9.23;;;;;;;2.12;79.02;98131.13;5016539;28;20042;-94
2021/01/22 07:02:32;;;;;;;22.13;9.80;;;;;;;2.34;79.57;98151.97;5015995;28;20057;-95
2021/01/22 07:04:59;;;;;;;23.45;10.82;;;;;;;2.05;78.10;98128.13;5014603;28;20027;-95
2021/01/22 07:07:44;;;;;;;23.35;9.93;;;;;;;1.90;79.81;98152.50;5012797;28;20038;-93
2021/01/22 07:12:47;;;;;;;21.77;10.70;;;;;;;2.00;80.49;98153.50;5339342;23;20046;-90
2021/01/22 07:15:22;;;;;;;22.58;9.90;;;;;;;1.78;81.67;98156.75;5008271;28;20022;-91
2021/01/22 07:17:49;;;;;;;21.45;9.40;;;;;;;1.75;82.29;98154.34;4998530;28;20030;-93
2021/01/22 07:20:15;;;;;;;21.05;9.07;;;;;;;1.81;82.32;98151.34;4995989;28;20033;-89
2021/01/22 07:22:59;;;;;;;20.58;9.00;;;;;;;1.72;81.92;98137.28;4996128;28;20038;-89
2021/01/22 07:25:37;;;;;;;24.38;10.70;;;;;;;1.99;80.17;98162.19;4995733;28;20038;-89
2021/01/22 07:28:21;;;;;;;23.40;9.07;;;;;;;1.82;79.93;98159.91;5022468;28;20030;-89
2021/01/22 07:30:46;;;;;;;28.67;10.25;;;;;;;1.90;81.24;98155.91;5032349;28;20056;-90
2021/01/22 07:33:30;;;;;;;24.45;9.98;;;;;;;2.09;81.09;98173.56;5050863;28;20029;-90
2021/01/22 07:36:10;;;;;;;17.20;9.00;;;;;;;1.96;80.33;98152.88;5021576;28;20581;-91
2021/01/22 07:38:38;;;;;;;15.00;7.75;;;;;;;2.10;81.03;98179.59;5023700;28;20029;-91
2021/01/22 07:41:05;;;;;;;19.73;9.45;;;;;;;2.06;80.98;98172.97;5034946;28;20026;-90
2021/01/22 07:43:30;;;;;;;19.13;8.48;;;;;;;1.83;80.50;98146.88;5035167;28;20018;-90
2021/01/22 07:46:10;;;;;;;28.08;10.88;;;;;;;1.98;80.38;98179.50;5035529;28;20013;-93
2021/01/22 07:48:36;;;;;;;23.75;10.27;;;;;;;2.02;81.22;98184.47;5024814;28;20022;-91
2021/01/22 07:51:31;;;;;;;23.15;11.18;;;;;;;1.96;79.63;98189.13;5009546;28;20064;-90
2021/01/22 07:54:01;;;;;;;24.60;10.05;;;;;;;1.82;80.04;98158.19;4991533;28;20034;-91
2021/01/22 07:56:36;;;;;;;27.63;10.52;;;;;;;2.13;80.01;98200.06;4996454;28;20137;-91
2021/01/22 07:59:03;;;;;;;20.25;9.70;;;;;;;2.04;78.66;98167.06;5008460;28;20018;-92
2021/01/22 08:01:29;;;;;;;25.70;11.63;;;;;;;2.05;79.63;98172.13;4987719;28;20113;-90
2021/01/22 08:03:54;;;;;;;23.92;10.85;;;;;;;2.15;79.39;98174.91;4992161;28;20169;-92
2021/01/22 08:06:20;;;;;;;26.65;9.00;;;;;;;2.45;78.37;98203.03;4989387;28;20097;-86
2021/01/22 08:08:46;;;;;;;17.58;8.48;;;;;;;2.13;79.18;98176.78;5012300;28;20522;-86
2021/01/22 08:11:18;;;;;;;19.40;8.60;;;;;;;2.30;79.77;98202.31;4988499;28;20040;-86
2021/01/22 08:13:44;;;;;;;23.30;7.93;;;;;;;2.24;80.20;98191.59;4991770;28;20030;-88
2021/01/22 08:16:10;;;;;;;27.20;9.57;;;;;;;2.09;78.69;98185.69;4989616;28;20511;-88
2021/01/22 08:18:38;;;;;;;15.75;9.48;;;;;;;2.08;79.31;98181.47;4996917;28;20442;-88
2021/01/22 08:21:04;;;;;;;21.98;9.70;;;;;;;2.10;79.77;98189.94;4991138;28;20038;-87
2021/01/22 08:23:33;;;;;;;20.10;9.68;;;;;;;2.03;78.97;98179.16;4991002;28;20437;-87
2021/01/22 08:25:59;;;;;;;19.45;9.07;;;;;;;2.31;79.27;98224.72;4986100;28;20093;-88
2021/01/22 08:28:28;;;;;;;23.98;8.98;;;;;;;2.22;80.16;98204.63;4992145;28;20031;-89
2021/01/22 08:30:54;;;;;;;14.90;7.30;;;;;;;2.28;79.85;98209.38;4995387;28;20532;-87
2021/01/22 08:33:24;;;;;;;19.85;8.55;;;;;;;2.43;79.79;98220.44;4994171;28;20042;-87
2021/01/22 08:35:50;;;;;;;17.35;8.30;;;;;;;2.38;80.33;98205.22;4995441;28;20373;-88
2021/01/22 08:38:16;;;;;;;18.42;7.63;;;;;;;2.50;80.02;98213.06;4999768;28;20034;-87
2021/01/22 08:40:44;;;;;;;16.48;7.18;;;;;;;2.51;79.97;98214.75;4996155;28;20485;-87
2021/01/22 08:43:12;;;;;;;25.77;9.65;;;;;;;2.56;78.42;98243.72;4995463;28;20034;-87
2021/01/22 08:45:39;;;;;;;20.50;8.73;;;;;;;2.57;80.42;98241.03;4995148;28;20551;-86
2021/01/22 08:48:04;;;;;;;20.60;8.77;;;;;;;2.61;80.02;98256.34;5009055;28;20077;-85
2021/01/22 08:50:30;;;;;;;28.27;11.80;;;;;;;2.78;80.12;98253.41;4996624;28;20026;-87
2021/01/22 08:53:06;;;;;;;27.83;10.18;;;;;;;2.54;81.62;98259.38;4995800;28;20042;-85
2021/01/22 08:55:32;;;;;;;35.15;15.25;;;;;;;2.63;81.61;98257.91;5003500;28;20027;-87
2021/01/22 08:58:09;;;;;;;23.33;13.35;;;;;;;2.67;81.62;98269.72;4996650;28;20699;-86
2021/01/22 09:00:35;;;;;;;27.05;14.05;;;;;;;2.68;81.04;98273.13;4997930;28;20029;-87
2021/01/22 09:03:01;;;;;;;18.15;11.20;;;;;;;2.40;81.21;98248.31;5000386;28;20034;-86
2021/01/22 09:05:27;;;;;;;23.50;9.40;;;;;;;2.63;80.91;98267.47;5004495;28;20694;-85
2021/01/22 09:08:05;;;;;;;21.85;10.30;;;;;;;2.67;81.15;98272.31;4995755;28;20031;-84
2021/01/22 09:10:34;;;;;;;22.98;8.77;;;;;;;2.66;81.20;98281.00;4987762;28;20122;-84
2021/01/22 09:13:13;;;;;;;14.48;7.72;;;;;;;2.99;80.80;98287.38;4992661;28;20107;-84
2021/01/22 09:15:39;;;;;;;19.85;7.50;;;;;;;3.05;79.35;98286.94;5000045;28;20369;-86
2021/01/22 09:18:22;;;;;;;15.73;7.75;;;;;;;3.11;80.01;98275.28;4989495;28;20115;-84
2021/01/22 09:21:05;;;;;;;14.63;7.03;;;;;;;3.19;79.05;98275.56;4990925;28;20061;-84
2021/01/22 09:23:31;;;;;;;17.23;6.63;;;;;;;3.26;79.90;98288.91;4997324;28;20022;-84
2021/01/22 09:25:57;;;;;;;13.23;6.30;;;;;;;3.31;79.74;98279.88;5001978;28;20101;-84
2021/01/22 09:28:23;;;;;;;12.55;5.90;;;;;;;3.35;79.50;98285.66;4995885;28;20031;-85
2021/01/22 09:30:48;;;;;;;16.73;6.25;;;;;;;3.24;80.06;98267.44;4990607;28;20027;-84
2021/01/22 09:33:14;;;;;;;9.43;5.57;;;;;;;3.52;79.91;98298.25;4993268;28;20022;-85
2021/01/22 09:35:40;;;;;;;9.75;5.43;;;;;;;3.69;79.18;98291.84;4996059;28;20485;-85
2021/01/22 09:38:05;;;;;;;9.88;5.50;;;;;;;3.55;80.80;98290.25;4995567;28;20026;-84
2021/01/22 09:40:31;;;;;;;14.60;5.50;;;;;;;3.66;80.10;98301.63;4989151;28;20526;-85
2021/01/22 09:42:56;;;;;;;10.60;5.75;;;;;;;3.77;80.80;98299.03;4989739;28;20670;-86
2021/01/22 09:45:22;;;;;;;12.15;4.78;;;;;;;4.15;78.98;98308.38;5015165;28;20018;-84
2021/01/22 09:47:47;;;;;;;10.45;5.82;;;;;;;4.56;78.97;98317.38;4999700;28;20038;-85
2021/01/22 09:50:14;;;;;;;11.52;5.53;;;;;;;4.83;79.48;98309.22;4994045;28;20022;-85
2021/01/22 09:52:40;;;;;;;10.60;5.57;;;;;;;5.21;77.95;98312.38;4981484;28;20026;-83
2021/01/22 09:55:07;;;;;;;9.48;5.40;;;;;;;5.35;76.59;98318.13;4997981;28;20045;-85
2021/01/22 09:57:33;;;;;;;14.95;4.32;;;;;;;5.75;76.72;98319.31;4999367;28;20026;-85
2021/01/22 09:59:58;;;;;;;13.93;5.10;;;;;;;6.03;77.00;98322.28;5000533;28;20791;-85
2021/01/22 10:02:24;;;;;;;15.35;4.93;;;;;;;6.34;76.15;98317.97;4982873;28;20014;-84
2021/01/22 10:04:49;;;;;;;11.43;3.58;;;;;;;6.59;72.94;98321.91;4995013;28;20022;-85
2021/01/22 10:07:14;;;;;;;18.55;3.72;;;;;;;6.76;73.69;98304.84;4994293;28;20054;-86
2021/01/22 10:09:40;;;;;;;8.63;3.45;;;;;;;7.28;72.75;98315.94;4994430;28;20026;-85
2021/01/22 10:12:07;;;;;;;12.30;3.65;;;;;;;7.74;70.47;98319.72;4981972;28;20022;-85
2021/01/22 10:14:33;;;;;;;9.10;2.95;;;;;;;8.59;69.30;98314.69;4992441;28;20034;-87
2021/01/22 10:16:58;;;;;;;6.40;3.08;;;;;;;9.50;67.89;98327.84;4995010;28;20042;-89
2021/01/22 10:19:24;;;;;;;9.88;2.88;;;;;;;10.34;65.82;98317.91;4993957;28;20485;-92
2021/01/22 10:29:35;;;;;;;8.93;2.80;;;;;;;10.88;61.52;98334.31;5992227;23;20317;-86
2021/01/22 10:32:00;;;;;;;5.90;2.72;;;;;;;10.57;65.14;98333.16;4992695;28;20038;-88
2021/01/22 10:34:26;;;;;;;27.73;3.85;;;;;;;10.03;63.54;98343.72;4994291;28;20101;-87
2021/01/22 10:36:51;;;;;;;8.07;2.97;;;;;;;9.64;64.55;98342.22;4995014;28;20031;-86
2021/01/22 10:39:16;;;;;;;10.25;2.65;;;;;;;9.10;66.52;98347.38;4990372;28;20451;-88
2021/01/22 10:41:42;;;;;;;10.50;3.15;;;;;;;8.97;67.50;98333.81;4987506;28;20023;-87
2021/01/22 10:44:07;;;;;;;12.75;3.08;;;;;;;8.65;67.61;98345.50;4993258;28;20401;-88
2021/01/22 10:46:32;;;;;;;8.07;2.70;;;;;;;8.71;67.99;98336.25;4993921;28;20120;-88
2021/01/22 10:48:59;;;;;;;9.85;3.38;;;;;;;8.84;68.08;98328.06;4992765;28;20031;-87
2021/01/22 10:51:24;;;;;;;5.85;3.40;;;;;;;8.88;68.37;98330.25;4991930;28;20026;-87
2021/01/22 10:53:50;;;;;;;10.90;4.55;;;;;;;8.62;67.85;98327.44;4991619;28;20369;-87
2021/01/22 10:56:15;;;;;;;9.88;3.88;;;;;;;8.66;67.00;98331.44;4993147;28;20022;-86
2021/01/22 10:58:40;;;;;;;7.63;3.20;;;;;;;8.66;69.45;98341.06;4991819;28;20018;-87
2021/01/22 11:01:06;;;;;;;7.05;3.20;;;;;;;8.60;69.27;98342.47;4993874;28;20034;-88
2021/01/22 11:03:32;;;;;;;12.68;4.45;;;;;;;8.64;69.55;98332.56;4997358;28;20440;-88
2021/01/22 11:05:57;;;;;;;10.95;3.85;;;;;;;8.52;69.27;98334.50;4993999;28;20022;-87
2021/01/22 11:08:23;;;;;;;10.48;4.65;;;;;;;8.31;69.67;98327.66;4993073;28;20038;-87
2021/01/22 11:10:50;;;;;;;12.10;6.25;;;;;;;8.18;68.13;98318.47;4992805;28;20026;-87
2021/01/22 11:13:15;;;;;;;10.23;5.75;;;;;;;8.41;69.00;98343.38;4998948;28;20029;-87
2021/01/22 11:15:40;;;;;;;11.15;6.88;;;;;;;8.27;69.78;98333.28;4993751;28;20026;-87
2021/01/22 11:18:06;;;;;;;18.15;6.13;;;;;;;8.22;67.68;98322.44;4993397;28;20037;-87
2021/01/22 11:20:31;;;;;;;7.38;4.07;;;;;;;8.56;69.08;98345.53;4977986;28;20073;-88
2021/01/22 11:22:57;;;;;;;9.15;3.95;;;;;;;8.68;68.64;98331.28;4990529;28;20040;-89
2021/01/22 11:25:23;;;;;;;8.15;3.65;;;;;;;8.86;69.46;98342.66;4993454;28;20037;-89
2021/01/22 11:27:49;;;;;;;7.45;3.85;;;;;;;8.80;67.67;98329.31;4978461;28;20037;-90
2021/01/22 11:30:16;;;;;;;6.72;3.40;;;;;;;8.94;69.61;98347.16;5007204;28;20073;-90
2021/01/22 11:32:42;;;;;;;6.93;2.92;;;;;;;8.84;67.33;98338.53;4997162;28;20121;-92
2021/01/22 11:35:38;;;;;;;8.65;3.45;;;;;;;9.12;67.61;98329.75;4998185;28;20061;-92
2021/01/22 11:38:04;;;;;;;12.68;3.70;;;;;;;9.49;66.16;98344.53;5000330;23;20058;-85
2021/01/22 11:40:30;;;;;;;8.45;3.60;;;;;;;9.71;67.36;98337.22;4991411;28;20038;-85
2021/01/22 11:42:55;;;;;;;6.97;3.28;;;;;;;10.05;65.99;98331.28;4990109;28;20475;-85
2021/01/22 11:45:20;;;;;;;5.72;2.63;;;;;;;10.15;64.53;98329.41;4991907;28;20527;-86
2021/01/22 11:47:46;;;;;;;6.07;2.55;;;;;;;10.29;65.74;98344.59;4976308;28;20057;-86